Time;durP1;ratioP1;P1;durP2;ratioP2;P2;SDS_P1;SDS_P2;PMS_P1;PMS_P2;Temp;Humidity;BMP_temperature;BMP_pressure;BME280_temperature;BME280_humidity;BME280_pressure;Samples;Min_cycle;Max_cycle;Signal;HPM_P1;HPM_P2
2020/12/17 00:02:02;;;;;;;27.08;18.58;;;6.20;99.90;;;;;;5060391;28;20211;-80
2020/12/17 00:04:29;;;;;;;25.27;18.27;;;6.00;99.90;;;;;;5060899;28;20210;-82
2020/12/17 00:06:56;;;;;;;29.48;18.23;;;5.90;99.90;;;;;;5060797;28;20238;-83
2020/12/17 00:09:23;;;;;;;27.20;16.90;;;6.00;99.90;;;;;;5060170;28;20318;-82
2020/12/17 00:11:50;;;;;;;26.65;18.83;;;6.00;99.90;;;;;;5058817;28;20289;-82
2020/12/17 00:14:17;;;;;;;27.02;19.70;;;5.90;99.90;;;;;;5057788;28;20222;-80
2020/12/17 00:16:44;;;;;;;28.45;18.33;;;5.90;99.90;;;;;;5058126;28;20289;-80
2020/12/17 00:19:11;;;;;;;25.23;17.67;;;6.00;99.90;;;;;;5057585;28;20207;-83
2020/12/17 00:21:37;;;;;;;25.60;18.33;;;5.90;99.90;;;;;;5058516;28;20223;-80
2020/12/17 00:24:03;;;;;;;28.00;19.38;;;6.00;99.90;;;;;;5058545;28;20226;-81
2020/12/17 00:26:31;;;;;;;26.40;17.58;;;6.00;99.90;;;;;;5058715;28;20199;-80
2020/12/17 00:28:57;;;;;;;25.55;18.55;;;6.00;99.90;;;;;;5057154;28;20257;-79
2020/12/17 00:31:24;;;;;;;22.98;17.77;;;5.90;99.90;;;;;;5057834;28;20561;-79
2020/12/17 00:33:50;;;;;;;30.75;19.17;;;5.90;99.90;;;;;;5056514;28;20231;-79
2020/12/17 00:36:18;;;;;;;24.70;17.48;;;5.90;99.90;;;;;;5056370;28;20252;-79
2020/12/17 00:38:44;;;;;;;28.88;18.65;;;5.90;99.90;;;;;;5056164;28;20558;-79
2020/12/17 00:41:12;;;;;;;26.35;18.05;;;5.90;99.90;;;;;;5056314;28;20222;-79
2020/12/17 00:43:40;;;;;;;29.20;17.95;;;5.90;99.90;;;;;;5055974;28;20223;-79
2020/12/17 00:46:07;;;;;;;30.52;19.67;;;5.90;99.90;;;;;;5056015;28;20568;-79
2020/12/17 00:48:33;;;;;;;27.92;18.15;;;5.70;99.90;;;;;;5056232;28;20206;-79
2020/12/17 00:51:00;;;;;;;26.02;17.95;;;5.80;99.90;;;;;;5056807;28;20584;-79
2020/12/17 00:53:26;;;;;;;26.25;17.38;;;5.60;99.90;;;;;;5056413;28;20234;-79
2020/12/17 00:55:53;;;;;;;26.80;17.75;;;5.80;99.90;;;;;;5055550;28;20215;-79
2020/12/17 00:58:19;;;;;;;25.52;16.85;;;5.70;99.90;;;;;;5056040;28;20548;-79
2020/12/17 01:00:46;;;;;;;30.40;18.75;;;5.70;99.90;;;;;;5055333;28;20244;-79
2020/12/17 01:03:13;;;;;;;29.45;17.63;;;5.90;99.90;;;;;;5055207;28;20226;-79
2020/12/17 01:05:39;;;;;;;31.13;18.05;;;6.00;99.90;;;;;;5055397;28;20213;-78
2020/12/17 01:08:05;;;;;;;22.13;15.90;;;5.90;99.90;;;;;;5055547;28;20636;-79
2020/12/17 01:10:32;;;;;;;24.40;17.85;;;6.00;99.90;;;;;;5055135;28;20198;-79
2020/12/17 01:12:58;;;;;;;24.10;16.58;;;6.00;99.90;;;;;;5054704;28;20253;-79
2020/12/17 01:15:24;;;;;;;28.35;17.48;;;6.00;99.90;;;;;;5055025;28;20207;-78
2020/12/17 01:17:52;;;;;;;24.38;17.85;;;5.80;99.90;;;;;;5055233;28;20203;-79
2020/12/17 01:20:18;;;;;;;27.67;17.17;;;5.90;99.90;;;;;;5054951;28;20227;-79
2020/12/17 01:22:45;;;;;;;24.00;16.90;;;5.90;99.90;;;;;;5055616;28;20219;-77
2020/12/17 01:25:11;;;;;;;33.00;20.77;;;5.90;99.90;;;;;;5054336;28;20359;-78
2020/12/17 01:27:37;;;;;;;26.50;17.98;;;5.90;99.90;;;;;;5054656;28;20641;-80
2020/12/17 01:30:04;;;;;;;28.08;18.70;;;5.90;99.90;;;;;;5054678;28;20199;-79
2020/12/17 01:32:31;;;;;;;27.85;16.40;;;5.90;99.90;;;;;;5054508;28;20234;-80
2020/12/17 01:34:58;;;;;;;26.27;17.20;;;5.80;99.90;;;;;;5054728;28;20187;-80
2020/12/17 01:37:24;;;;;;;28.15;17.63;;;5.90;99.90;;;;;;5054992;28;20202;-80
2020/12/17 01:39:50;;;;;;;26.27;16.70;;;5.90;99.90;;;;;;5055034;28;20551;-80
2020/12/17 01:42:17;;;;;;;27.27;19.10;;;5.90;99.90;;;;;;5055310;28;20305;-80
2020/12/17 01:44:46;;;;;;;24.25;17.08;;;5.80;99.90;;;;;;5055086;28;20579;-80
2020/12/17 01:47:12;;;;;;;25.40;17.80;;;5.90;99.90;;;;;;5056139;28;20210;-80
2020/12/17 01:49:39;;;;;;;24.40;17.13;;;6.00;99.90;;;;;;5056382;28;20205;-80
2020/12/17 01:52:07;;;;;;;24.83;16.85;;;5.90;99.90;;;;;;5054731;28;20651;-80
2020/12/17 01:54:33;;;;;;;25.10;16.80;;;5.90;99.90;;;;;;5054624;28;20202;-80
2020/12/17 01:57:02;;;;;;;23.65;16.35;;;6.00;99.90;;;;;;5055114;28;20217;-80
2020/12/17 01:59:33;;;;;;;24.45;16.77;;;6.00;99.90;;;;;;5054506;28;20217;-80
2020/12/17 02:02:04;;;;;;;25.00;16.75;;;6.00;99.90;;;;;;5055517;28;20547;-80
2020/12/17 02:04:30;;;;;;;22.70;16.15;;;6.00;99.90;;;;;;5055249;28;20249;-80
2020/12/17 02:06:57;;;;;;;27.67;18.23;;;6.00;99.90;;;;;;5054876;28;20228;-80
2020/12/17 02:09:24;;;;;;;31.08;18.42;;;6.00;99.90;;;;;;5054886;28;20209;-80
2020/12/17 02:11:52;;;;;;;28.73;18.60;;;5.90;99.90;;;;;;5054310;28;20659;-80
2020/12/17 02:14:19;;;;;;;26.15;17.17;;;5.80;99.90;;;;;;5054574;28;20218;-80
2020/12/17 02:16:45;;;;;;;25.60;17.38;;;5.80;99.90;;;;;;5054204;28;20209;-80
2020/12/17 02:19:12;;;;;;;27.38;17.67;;;5.60;99.90;;;;;;5054990;28;20188;-80
2020/12/17 02:21:38;;;;;;;24.75;16.85;;;5.60;99.90;;;;;;5055078;28;20600;-80
2020/12/17 02:24:05;;;;;;;23.88;15.75;;;5.50;99.90;;;;;;5053942;28;20235;-80
2020/12/17 02:26:32;;;;;;;27.35;17.25;;;5.40;99.90;;;;;;5054411;28;20203;-80
2020/12/17 02:28:59;;;;;;;29.05;17.60;;;5.40;99.90;;;;;;5055327;28;20236;-79
2020/12/17 02:31:25;;;;;;;27.73;17.60;;;5.40;99.90;;;;;;5055350;28;20642;-80
2020/12/17 02:33:51;;;;;;;27.30;19.30;;;5.40;99.90;;;;;;5054765;28;20230;-80
2020/12/17 02:36:18;;;;;;;31.40;20.08;;;5.30;99.90;;;;;;5060784;28;20209;-78
2020/12/17 02:38:45;;;;;;;35.17;19.33;;;5.20;99.90;;;;;;5067513;28;20231;-78
2020/12/17 02:41:11;;;;;;;32.15;19.70;;;5.10;99.90;;;;;;5068301;28;20223;-78
2020/12/17 02:43:40;;;;;;;28.52;18.77;;;5.20;99.90;;;;;;5068039;28;20234;-79
2020/12/17 02:46:07;;;;;;;27.10;17.80;;;5.30;99.90;;;;;;5055104;28;20199;-80
2020/12/17 02:48:33;;;;;;;25.15;17.98;;;5.20;99.90;;;;;;5054374;28;20206;-80
2020/12/17 02:50:59;;;;;;;29.38;18.67;;;5.20;99.90;;;;;;5055262;28;20552;-80
2020/12/17 02:53:26;;;;;;;28.80;18.83;;;5.20;99.90;;;;;;5053730;28;20227;-80
2020/12/17 02:55:52;;;;;;;27.65;17.35;;;5.20;99.90;;;;;;5054992;28;20207;-78
2020/12/17 02:58:19;;;;;;;26.27;19.02;;;5.20;99.90;;;;;;5058349;28;20211;-77
2020/12/17 03:00:46;;;;;;;28.27;18.42;;;5.10;99.90;;;;;;5067296;28;20219;-80
2020/12/17 03:03:13;;;;;;;26.77;17.65;;;5.10;99.90;;;;;;5056372;28;20227;-80
2020/12/17 03:05:40;;;;;;;27.10;17.73;;;5.00;99.90;;;;;;5058042;28;20218;-79
2020/12/17 03:08:06;;;;;;;29.10;19.30;;;5.00;99.90;;;;;;5060061;28;20618;-78
2020/12/17 03:10:33;;;;;;;29.45;19.02;;;5.00;99.90;;;;;;5059462;28;20229;-78
2020/12/17 03:12:59;;;;;;;31.80;19.45;;;5.00;99.90;;;;;;5059792;28;20271;-79
2020/12/17 03:15:25;;;;;;;29.10;18.02;;;5.00;99.90;;;;;;5058239;28;20675;-79
2020/12/17 03:17:52;;;;;;;25.95;18.40;;;5.00;99.90;;;;;;5057906;28;20289;-79
2020/12/17 03:20:19;;;;;;;30.50;19.55;;;4.90;99.90;;;;;;5058673;28;20310;-79
2020/12/17 03:22:45;;;;;;;27.73;18.55;;;4.90;99.90;;;;;;5059490;28;20314;-79
2020/12/17 03:25:11;;;;;;;30.13;18.23;;;4.90;99.90;;;;;;5058706;28;20294;-80
2020/12/17 03:27:38;;;;;;;33.40;18.50;;;4.90;99.90;;;;;;5058087;28;20298;-79
2020/12/17 03:30:06;;;;;;;28.20;17.90;;;5.00;99.90;;;;;;5058384;28;20203;-79
2020/12/17 03:32:32;;;;;;;26.67;18.40;;;5.00;99.90;;;;;;5058397;28;20227;-79
2020/12/17 03:34:59;;;;;;;30.02;19.88;;;4.90;99.90;;;;;;5059188;28;20184;-79
2020/12/17 03:37:26;;;;;;;30.08;20.40;;;4.90;99.90;;;;;;5058636;28;20202;-79
2020/12/17 03:39:52;;;;;;;29.05;18.10;;;5.00;99.90;;;;;;5058265;28;20203;-79
2020/12/17 03:42:19;;;;;;;23.90;17.25;;;4.90;99.90;;;;;;5058312;28;20231;-79
2020/12/17 03:44:46;;;;;;;29.05;19.27;;;4.90;99.90;;;;;;5060086;28;20207;-79
2020/12/17 03:47:12;;;;;;;25.85;19.20;;;4.80;99.90;;;;;;5072836;28;20678;-78
2020/12/17 03:49:38;;;;;;;32.95;20.45;;;4.70;99.90;;;;;;5074723;28;20303;-78
2020/12/17 03:52:05;;;;;;;34.50;19.77;;;4.70;99.90;;;;;;5074374;28;20202;-78
2020/12/17 03:54:32;;;;;;;26.77;19.33;;;4.70;99.90;;;;;;5074765;28;20213;-78
2020/12/17 03:57:00;;;;;;;29.85;18.90;;;4.80;99.90;;;;;;5074565;28;20198;-79
2020/12/17 03:59:26;;;;;;;30.05;19.23;;;4.80;99.90;;;;;;5074674;28;20607;-79
2020/12/17 04:01:52;;;;;;;29.38;18.65;;;4.80;99.90;;;;;;5073660;28;20257;-79
2020/12/17 04:04:19;;;;;;;26.45;17.65;;;4.80;99.90;;;;;;5074597;28;20238;-78
2020/12/17 04:06:45;;;;;;;28.25;18.83;;;4.90;99.90;;;;;;5073708;28;20214;-78
2020/12/17 04:09:13;;;;;;;31.17;19.65;;;4.90;99.90;;;;;;5073484;28;20289;-79
2020/12/17 04:11:39;;;;;;;30.50;20.27;;;4.70;99.90;;;;;;5074069;28;20203;-78
2020/12/17 04:14:06;;;;;;;27.95;18.48;;;4.80;99.90;;;;;;5073997;28;20287;-78
2020/12/17 04:16:32;;;;;;;32.35;20.25;;;4.60;99.90;;;;;;5072143;28;20232;-78
2020/12/17 04:18:58;;;;;;;34.42;21.20;;;4.50;99.90;;;;;;5073107;28;20723;-77
2020/12/17 04:21:25;;;;;;;28.70;18.25;;;4.40;99.90;;;;;;5073204;28;20223;-78
2020/12/17 04:23:51;;;;;;;32.53;19.33;;;4.50;99.90;;;;;;5072327;28;20251;-78
2020/12/17 04:26:18;;;;;;;30.70;18.77;;;4.50;99.90;;;;;;5071270;28;20203;-78
2020/12/17 04:28:44;;;;;;;30.02;19.80;;;4.50;99.90;;;;;;5072119;28;20214;-79
2020/12/17 04:31:11;;;;;;;31.30;20.42;;;4.40;99.90;;;;;;5075256;28;20211;-79
2020/12/17 04:33:37;;;;;;;29.15;19.05;;;4.40;99.90;;;;;;5075323;28;20321;-79
2020/12/17 04:36:04;;;;;;;31.23;19.63;;;4.40;99.90;;;;;;5072956;28;20222;-79
2020/12/17 04:38:30;;;;;;;30.85;18.85;;;4.40;99.90;;;;;;5056899;28;20574;-79
2020/12/17 04:41:01;;;;;;;30.77;21.10;;;4.50;99.90;;;;;;5055974;28;20238;-79
2020/12/17 04:43:29;;;;;;;31.15;21.10;;;4.60;99.90;;;;;;5056233;28;20222;-79
2020/12/17 04:45:57;;;;;;;36.53;23.02;;;4.60;99.90;;;;;;5055931;28;20234;-79
2020/12/17 04:48:26;;;;;;;29.65;19.50;;;4.50;99.90;;;;;;5056585;28;20207;-78
2020/12/17 04:50:53;;;;;;;33.03;21.80;;;4.60;99.90;;;;;;5056619;28;20210;-78
2020/12/17 04:53:19;;;;;;;37.50;22.00;;;4.50;99.90;;;;;;5055991;28;20226;-78
2020/12/17 04:55:48;;;;;;;33.67;21.05;;;4.60;99.90;;;;;;5055944;28;20256;-79
2020/12/17 04:58:20;;;;;;;34.90;20.33;;;4.60;99.90;;;;;;5056381;28;20242;-79
2020/12/17 05:00:52;;;;;;;31.98;20.40;;;4.50;99.90;;;;;;5055675;28;20738;-79
2020/12/17 05:03:21;;;;;;;32.88;21.55;;;4.50;99.90;;;;;;5055579;28;20367;-79
2020/12/17 05:05:51;;;;;;;32.00;22.25;;;4.50;99.90;;;;;;5054160;28;20435;-79
2020/12/17 05:08:18;;;;;;;29.42;19.95;;;4.50;99.90;;;;;;5055797;28;20289;-78
2020/12/17 05:10:45;;;;;;;28.17;19.05;;;4.50;99.90;;;;;;5055092;28;20222;-79
2020/12/17 05:13:11;;;;;;;30.98;20.60;;;4.50;99.90;;;;;;5055186;28;20229;-79
2020/12/17 05:15:38;;;;;;;31.52;19.88;;;4.50;99.90;;;;;;5056298;28;20203;-79
2020/12/17 05:18:07;;;;;;;31.17;20.70;;;4.40;99.90;;;;;;5055037;28;20926;-79
2020/12/17 05:20:36;;;;;;;32.63;22.20;;;4.30;99.90;;;;;;5053661;28;20501;-78
2020/12/17 05:23:04;;;;;;;31.50;22.20;;;4.40;99.90;;;;;;5054845;28;20280;-79
2020/12/17 05:25:32;;;;;;;35.83;21.88;;;4.50;99.90;;;;;;5055005;28;20206;-79
2020/12/17 05:28:01;;;;;;;31.80;20.48;;;4.40;99.90;;;;;;5054932;28;20207;-77
2020/12/17 05:30:32;;;;;;;36.00;22.10;;;4.40;99.90;;;;;;5056051;28;20308;-78
2020/12/17 05:32:58;;;;;;;32.75;19.70;;;4.30;99.90;;;;;;5057638;28;20242;-79
2020/12/17 05:35:32;;;;;;;35.92;21.50;;;4.20;99.90;;;;;;5058514;28;20289;-79
2020/12/17 05:38:01;;;;;;;31.40;20.83;;;4.20;99.90;;;;;;5060948;28;20191;-79
2020/12/17 05:40:27;;;;;;;36.13;21.52;;;4.20;99.90;;;;;;5058358;28;20233;-78
2020/12/17 05:42:54;;;;;;;33.70;22.67;;;4.20;99.90;;;;;;5058779;28;20440;-79
2020/12/17 05:45:25;;;;;;;35.13;22.95;;;4.20;99.90;;;;;;5062983;28;20441;-78
2020/12/17 05:48:08;;;;;;;33.15;21.70;;;4.20;99.90;;;;;;5070486;28;20203;-78
2020/12/17 05:50:46;;;;;;;32.67;21.02;;;4.20;99.90;;;;;;5072234;28;20266;-78
2020/12/17 05:53:14;;;;;;;36.63;20.98;;;4.10;99.90;;;;;;5073142;28;20286;-78
2020/12/17 05:55:41;;;;;;;32.97;19.75;;;4.20;99.90;;;;;;5072607;28;20232;-79
2020/12/17 05:58:08;;;;;;;36.88;20.38;;;4.20;99.90;;;;;;5062241;28;20203;-78
2020/12/17 06:00:35;;;;;;;32.35;19.45;;;4.10;99.90;;;;;;5056011;28;20222;-78
2020/12/17 06:03:01;;;;;;;36.58;21.17;;;4.10;99.90;;;;;;5055828;28;20313;-79
2020/12/17 06:05:29;;;;;;;31.23;20.73;;;4.00;99.90;;;;;;5057020;28;20298;-79
2020/12/17 06:08:00;;;;;;;30.00;20.15;;;3.90;99.90;;;;;;5056495;28;20290;-79
2020/12/17 06:10:28;;;;;;;31.17;20.38;;;3.90;99.90;;;;;;5054344;28;20190;-79
2020/12/17 06:12:55;;;;;;;33.75;21.60;;;4.00;99.90;;;;;;5054443;28;20226;-79
2020/12/17 06:15:24;;;;;;;35.40;21.60;;;4.10;99.90;;;;;;5053105;28;20432;-78
2020/12/17 06:17:53;;;;;;;35.55;21.55;;;4.10;99.90;;;;;;5054308;28;20631;-79
2020/12/17 06:20:21;;;;;;;33.28;21.40;;;4.00;99.90;;;;;;5054316;28;20226;-78
2020/12/17 06:22:51;;;;;;;30.27;20.67;;;3.90;99.90;;;;;;5053245;28;20493;-78
2020/12/17 06:25:19;;;;;;;31.67;21.45;;;4.00;99.90;;;;;;5057196;28;20241;-77
2020/12/17 06:27:47;;;;;;;35.13;20.40;;;4.00;99.90;;;;;;5065903;28;20503;-78
2020/12/17 06:30:17;;;;;;;37.50;23.98;;;4.00;99.90;;;;;;5065618;28;20427;-78
2020/12/17 06:32:44;;;;;;;33.70;22.52;;;3.90;99.90;;;;;;5087146;22;20230;-79
2020/12/17 06:35:22;;;;;;;35.92;23.35;;;4.00;99.90;;;;;;5062151;28;20213;-79
2020/12/17 06:37:51;;;;;;;34.78;22.35;;;3.90;99.90;;;;;;5057103;28;20184;-81
2020/12/17 06:40:26;;;;;;;29.20;20.70;;;3.90;99.90;;;;;;5058481;28;20223;-81
2020/12/17 06:42:52;;;;;;;37.53;22.65;;;3.90;99.90;;;;;;5061417;28;20233;-78
2020/12/17 06:45:26;;;;;;;38.45;22.08;;;3.90;99.90;;;;;;5080685;28;20187;-78
2020/12/17 06:47:52;;;;;;;30.50;20.13;;;3.90;99.90;;;;;;5079977;28;20202;-78
2020/12/17 06:50:23;;;;;;;33.78;21.25;;;3.80;99.90;;;;;;5079295;28;20207;-79
2020/12/17 06:53:10;;;;;;;36.92;21.70;;;3.80;99.90;;;;;;5066155;28;20223;-79
2020/12/17 06:55:42;;;;;;;35.58;20.90;;;3.80;99.90;;;;;;5065171;28;20198;-79
2020/12/17 06:58:18;;;;;;;41.10;20.92;;;3.80;99.90;;;;;;5059055;28;20261;-79
2020/12/17 07:00:44;;;;;;;33.22;21.63;;;3.80;99.90;;;;;;5059511;28;20207;-79
2020/12/17 07:03:11;;;;;;;36.22;20.23;;;3.80;99.90;;;;;;5059360;28;20745;-79
2020/12/17 07:05:39;;;;;;;29.42;19.50;;;3.80;99.90;;;;;;5059020;28;20242;-80
2020/12/17 07:08:05;;;;;;;33.65;19.55;;;3.80;99.90;;;;;;5058615;28;20203;-79
2020/12/17 07:10:32;;;;;;;33.42;21.00;;;3.80;99.90;;;;;;5058904;28;20205;-81
2020/12/17 07:13:00;;;;;;;34.42;19.20;;;3.80;99.90;;;;;;5059459;28;20257;-79
2020/12/17 07:15:31;;;;;;;31.50;20.17;;;3.80;99.90;;;;;;5059190;28;20238;-79
2020/12/17 07:18:28;;;;;;;34.75;23.10;;;3.80;99.90;;;;;;5062393;28;20634;-81
2020/12/17 07:21:02;;;;;;;33.22;20.20;;;3.80;99.90;;;;;;4997621;28;20272;-80
2020/12/17 07:23:31;;;;;;;35.17;20.83;;;3.80;99.90;;;;;;5047759;28;20242;-80
2020/12/17 07:26:04;;;;;;;35.72;20.38;;;3.80;99.90;;;;;;5059590;28;20237;-80
2020/12/17 07:28:32;;;;;;;36.30;21.60;;;3.70;99.90;;;;;;5058695;28;20714;-81
2020/12/17 07:30:58;;;;;;;29.85;19.50;;;3.80;99.90;;;;;;5061217;28;20199;-79
2020/12/17 07:33:43;;;;;;;29.85;19.67;;;3.90;99.90;;;;;;5070451;28;20731;-79
2020/12/17 07:36:11;;;;;;;32.40;20.40;;;4.00;99.90;;;;;;5069073;28;20210;-79
2020/12/17 07:38:39;;;;;;;35.92;21.25;;;4.00;99.90;;;;;;5071410;28;20203;-79
2020/12/17 07:41:06;;;;;;;36.22;23.05;;;4.00;99.90;;;;;;5071003;28;20230;-79
2020/12/17 07:43:41;;;;;;;36.25;20.25;;;4.20;99.90;;;;;;5070781;28;20223;-79
2020/12/17 07:46:08;;;;;;;30.98;21.15;;;4.30;99.90;;;;;;5070281;28;20246;-79
2020/12/17 07:48:46;;;;;;;33.15;20.73;;;4.30;99.90;;;;;;5072508;28;20203;-81
2020/12/17 07:51:33;;;;;;;31.60;19.33;;;4.30;99.90;;;;;;5062514;28;20194;-81
2020/12/17 07:54:05;;;;;;;33.50;19.80;;;4.30;99.90;;;;;;5063557;28;20231;-80
2020/12/17 07:56:31;;;;;;;28.83;18.73;;;4.40;99.90;;;;;;5067086;28;20199;-78
2020/12/17 07:59:04;;;;;;;35.13;19.50;;;4.60;99.90;;;;;;5064281;28;20723;-79
2020/12/17 08:01:30;;;;;;;31.77;19.88;;;4.60;99.90;;;;;;5063793;28;20298;-79
2020/12/17 08:03:57;;;;;;;32.40;18.85;;;4.60;99.90;;;;;;5059082;28;20230;-79
2020/12/17 08:06:24;;;;;;;35.45;21.10;;;4.60;99.90;;;;;;5059753;28;20206;-79
2020/12/17 08:08:53;;;;;;;32.95;19.15;;;4.60;99.90;;;;;;5060845;28;20210;-79
2020/12/17 08:11:20;;;;;;;33.97;19.38;;;4.50;99.90;;;;;;5059067;28;20298;-80
2020/12/17 08:13:46;;;;;;;29.33;18.50;;;4.60;99.90;;;;;;5059171;28;20223;-81
2020/12/17 08:16:13;;;;;;;30.67;19.15;;;4.60;99.90;;;;;;5059006;28;20289;-80
2020/12/17 08:18:40;;;;;;;39.30;21.30;;;4.80;99.90;;;;;;5059004;28;20199;-80
2020/12/17 08:21:08;;;;;;;35.00;20.88;;;4.80;99.90;;;;;;5058366;28;20215;-81
2020/12/17 08:23:35;;;;;;;36.30;19.42;;;4.90;99.90;;;;;;5058772;28;20219;-80
2020/12/17 08:26:05;;;;;;;30.77;18.13;;;4.80;99.90;;;;;;5059002;28;20207;-80
2020/12/17 08:28:36;;;;;;;31.60;20.25;;;4.80;99.90;;;;;;5068287;28;20588;-80
2020/12/17 08:31:04;;;;;;;32.53;20.73;;;4.90;99.90;;;;;;5074089;28;20213;-80
2020/12/17 08:33:33;;;;;;;34.15;19.92;;;4.90;99.90;;;;;;5075127;28;20307;-80
2020/12/17 08:36:06;;;;;;;36.10;19.45;;;5.00;99.90;;;;;;5071724;28;20215;-79
2020/12/17 08:38:34;;;;;;;32.95;19.23;;;4.90;99.90;;;;;;5062285;28;20199;-80
2020/12/17 08:41:02;;;;;;;31.58;19.88;;;4.90;99.90;;;;;;5060988;28;20317;-80
2020/12/17 08:43:34;;;;;;;29.20;18.88;;;5.00;99.90;;;;;;5059261;28;20309;-80
2020/12/17 08:46:02;;;;;;;34.15;18.60;;;4.90;99.90;;;;;;5059613;28;20241;-80
2020/12/17 08:48:33;;;;;;;32.70;19.65;;;5.00;99.90;;;;;;5059675;28;20327;-80
2020/12/17 08:50:59;;;;;;;30.35;19.73;;;5.00;99.90;;;;;;5060465;28;20187;-79
2020/12/17 08:53:27;;;;;;;31.58;19.30;;;4.90;99.90;;;;;;5059506;28;20219;-80
2020/12/17 08:56:02;;;;;;;30.13;18.58;;;5.00;99.90;;;;;;5062239;28;20564;-80
2020/12/17 08:58:28;;;;;;;26.20;16.55;;;5.10;99.90;;;;;;5062724;28;20255;-81
2020/12/17 09:00:54;;;;;;;27.65;18.55;;;5.10;99.90;;;;;;5061670;28;20305;-79
2020/12/17 09:03:22;;;;;;;32.60;20.35;;;5.10;99.90;;;;;;5060289;28;20253;-80
2020/12/17 09:06:02;;;;;;;27.42;18.38;;;5.10;99.90;;;;;;5059140;28;20203;-80
2020/12/17 09:08:29;;;;;;;31.20;18.70;;;5.10;99.90;;;;;;5058174;28;20191;-80
2020/12/17 09:10:55;;;;;;;27.10;16.65;;;5.20;99.90;;;;;;5072977;28;20294;-78
2020/12/17 09:13:22;;;;;;;29.75;19.63;;;5.20;99.90;;;;;;5075693;28;20286;-79
2020/12/17 09:15:58;;;;;;;30.27;18.90;;;5.20;99.90;;;;;;5065802;28;20214;-80
2020/12/17 09:18:25;;;;;;;33.60;20.42;;;5.10;99.90;;;;;;5064393;28;20563;-80
2020/12/17 09:21:06;;;;;;;27.85;17.95;;;5.20;99.90;;;;;;5059443;28;20227;-80
2020/12/17 09:23:33;;;;;;;32.63;18.60;;;5.20;99.90;;;;;;5060864;28;20657;-80
2020/12/17 09:26:13;;;;;;;27.25;17.23;;;5.30;99.90;;;;;;5057288;28;20207;-80
2020/12/17 09:28:49;;;;;;;27.88;18.73;;;5.20;99.90;;;;;;5056820;28;20195;-80
2020/12/17 09:31:34;;;;;;;24.83;16.77;;;5.30;99.90;;;;;;5057202;28;20248;-80
2020/12/17 09:34:14;;;;;;;30.63;18.83;;;5.30;99.90;;;;;;5056457;28;20610;-80
2020/12/17 09:36:44;;;;;;;26.05;17.92;;;5.40;99.90;;;;;;5056469;28;20202;-79
2020/12/17 09:39:14;;;;;;;32.20;18.80;;;5.40;99.90;;;;;;5055539;28;20209;-80
2020/12/17 09:41:50;;;;;;;36.72;21.48;;;5.50;99.90;;;;;;5054938;28;20222;-80
2020/12/17 09:44:27;;;;;;;32.80;18.25;;;5.50;99.90;;;;;;5055064;28;20223;-81
2020/12/17 09:46:53;;;;;;;32.40;18.88;;;5.40;99.90;;;;;;5056432;28;20743;-81
2020/12/17 09:49:25;;;;;;;26.38;16.65;;;5.40;99.90;;;;;;5057050;28;20214;-79
2020/12/17 09:52:07;;;;;;;28.25;18.60;;;5.60;99.90;;;;;;5061025;28;20233;-79
2020/12/17 09:54:38;;;;;;;26.67;19.10;;;5.60;99.90;;;;;;5065716;28;20233;-80
2020/12/17 09:57:10;;;;;;;29.63;18.40;;;5.60;99.90;;;;;;5068430;28;20202;-78
2020/12/17 09:59:37;;;;;;;25.23;18.17;;;5.70;99.90;;;;;;5075334;28;20230;-78
2020/12/17 10:02:05;;;;;;;27.95;16.30;;;5.70;99.90;;;;;;5075790;28;20663;-78
2020/12/17 10:04:32;;;;;;;28.77;19.02;;;5.80;99.90;;;;;;5075800;28;20291;-78
2020/12/17 10:06:58;;;;;;;32.47;18.05;;;5.80;99.90;;;;;;5075672;28;20226;-78
2020/12/17 10:09:26;;;;;;;27.75;17.25;;;5.80;99.90;;;;;;5074711;28;20262;-78
2020/12/17 10:11:53;;;;;;;28.85;17.95;;;5.80;99.90;;;;;;5075133;28;20209;-78
2020/12/17 10:14:20;;;;;;;26.92;17.95;;;5.80;99.90;;;;;;5075717;28;20316;-78
2020/12/17 10:16:47;;;;;;;27.35;17.98;;;5.80;99.90;;;;;;5077352;28;20226;-80
2020/12/17 10:19:15;;;;;;;36.95;21.50;;;5.90;99.90;;;;;;5065276;28;20211;-80
2020/12/17 10:21:41;;;;;;;28.55;18.08;;;5.80;99.90;;;;;;5060845;28;20249;-80
2020/12/17 10:24:08;;;;;;;25.48;16.55;;;5.90;99.90;;;;;;5061388;28;20230;-79
2020/12/17 10:26:35;;;;;;;28.38;17.83;;;5.90;99.90;;;;;;5060875;28;20210;-79
2020/12/17 10:29:01;;;;;;;28.98;18.85;;;5.90;99.90;;;;;;5061899;28;20207;-81
2020/12/17 10:31:28;;;;;;;29.75;18.20;;;5.90;99.90;;;;;;5063388;28;20571;-79
2020/12/17 10:33:55;;;;;;;26.88;17.48;;;6.00;99.90;;;;;;5063635;28;20322;-80
2020/12/17 10:36:21;;;;;;;29.63;17.83;;;6.00;99.90;;;;;;5063160;28;20203;-80
2020/12/17 10:38:47;;;;;;;27.20;17.42;;;6.00;99.90;;;;;;5066934;28;20207;-81
2020/12/17 10:41:14;;;;;;;29.67;17.98;;;6.10;99.90;;;;;;5065872;28;20660;-82
2020/12/17 10:43:42;;;;;;;28.77;18.35;;;6.20;99.90;;;;;;5061165;28;20229;-81
2020/12/17 10:46:08;;;;;;;27.50;16.85;;;6.10;99.90;;;;;;5060907;28;20202;-81
2020/12/17 10:48:34;;;;;;;27.02;17.88;;;6.20;99.90;;;;;;5060786;28;20275;-81
2020/12/17 10:51:01;;;;;;;25.65;16.73;;;6.20;99.90;;;;;;5061277;28;20206;-81
2020/12/17 10:53:27;;;;;;;29.33;18.65;;;6.30;99.90;;;;;;5060734;28;20309;-81
2020/12/17 10:55:53;;;;;;;26.02;16.00;;;6.30;99.90;;;;;;5059737;28;20675;-81
2020/12/17 10:58:19;;;;;;;24.35;16.52;;;6.40;99.90;;;;;;5060185;28;20254;-81
2020/12/17 11:00:47;;;;;;;30.10;19.63;;;6.50;99.90;;;;;;5060000;28;20223;-81
2020/12/17 11:03:13;;;;;;;26.48;16.42;;;6.50;99.90;;;;;;5059999;28;20790;-80
2020/12/17 11:05:40;;;;;;;28.33;16.77;;;6.50;99.90;;;;;;5059804;28;20207;-81
2020/12/17 11:08:06;;;;;;;25.00;16.70;;;6.60;99.90;;;;;;5058450;28;20298;-80
2020/12/17 11:10:32;;;;;;;22.92;16.27;;;6.60;99.90;;;;;;5059396;28;20203;-81
2020/12/17 11:12:59;;;;;;;25.27;15.82;;;6.70;99.90;;;;;;5059935;28;20311;-81
2020/12/17 11:15:25;;;;;;;26.15;16.27;;;6.70;99.90;;;;;;5059418;28;20214;-81
2020/12/17 11:17:52;;;;;;;25.63;18.13;;;6.80;99.90;;;;;;5059878;28;20293;-81
2020/12/17 11:20:18;;;;;;;25.63;14.80;;;6.70;99.90;;;;;;5059201;28;20303;-81
2020/12/17 11:22:45;;;;;;;21.27;14.30;;;6.80;99.90;;;;;;5059558;28;20231;-79
2020/12/17 11:25:12;;;;;;;23.60;15.55;;;6.70;99.90;;;;;;5060394;28;20292;-81
2020/12/17 11:27:38;;;;;;;26.92;15.35;;;6.80;99.90;;;;;;5060087;28;20645;-80
2020/12/17 11:30:06;;;;;;;22.80;14.52;;;6.80;99.90;;;;;;5066154;28;20203;-80
2020/12/17 11:32:32;;;;;;;21.40;14.82;;;6.90;99.90;;;;;;5068911;28;20697;-80
2020/12/17 11:35:00;;;;;;;18.70;14.35;;;7.00;99.90;;;;;;5068838;28;20187;-80
2020/12/17 11:37:26;;;;;;;27.70;17.02;;;6.90;99.90;;;;;;5067778;28;20576;-79
2020/12/17 11:39:55;;;;;;;23.85;14.77;;;7.00;99.90;;;;;;5067686;28;20202;-80
2020/12/17 11:42:21;;;;;;;24.42;16.08;;;7.00;99.90;;;;;;5060943;28;20226;-80
2020/12/17 11:44:47;;;;;;;25.38;15.27;;;7.10;99.90;;;;;;5060557;28;20229;-82
2020/12/17 11:47:15;;;;;;;20.77;15.02;;;7.20;99.90;;;;;;5065895;28;20252;-79
2020/12/17 11:49:41;;;;;;;21.30;15.38;;;7.30;99.90;;;;;;5072526;28;20206;-79
2020/12/17 11:52:09;;;;;;;24.73;16.05;;;7.20;99.90;;;;;;5071141;28;20209;-78
2020/12/17 11:54:35;;;;;;;27.00;16.38;;;7.30;99.90;;;;;;5073042;28;20214;-78
2020/12/17 11:57:01;;;;;;;25.58;16.17;;;7.30;99.90;;;;;;5065803;28;20568;-80
2020/12/17 11:59:29;;;;;;;22.17;15.57;;;7.20;99.90;;;;;;5066886;28;20221;-79
2020/12/17 12:01:55;;;;;;;21.80;14.50;;;7.20;99.90;;;;;;5073131;28;20223;-79
2020/12/17 12:04:22;;;;;;;23.45;15.90;;;7.10;99.90;;;;;;5063262;28;20276;-81
2020/12/17 12:06:49;;;;;;;25.90;15.40;;;7.20;99.90;;;;;;5074266;28;20203;-79
2020/12/17 12:09:18;;;;;;;25.17;16.02;;;7.20;99.90;;;;;;5072999;28;20207;-80
2020/12/17 12:11:45;;;;;;;26.83;17.52;;;7.30;99.90;;;;;;5072844;28;20194;-79
2020/12/17 12:14:11;;;;;;;22.48;14.68;;;7.40;99.90;;;;;;5073790;28;20223;-79
2020/12/17 12:16:38;;;;;;;21.67;14.35;;;7.40;99.90;;;;;;5072394;28;20233;-79
2020/12/17 12:19:04;;;;;;;26.65;14.18;;;7.40;99.90;;;;;;5072203;28;20646;-80
2020/12/17 12:21:30;;;;;;;23.13;13.73;;;7.50;99.90;;;;;;5070989;28;20243;-78
2020/12/17 12:23:57;;;;;;;22.33;14.88;;;7.50;99.90;;;;;;5072728;28;20215;-77
2020/12/17 12:26:24;;;;;;;20.38;13.90;;;7.60;99.90;;;;;;5071172;28;20310;-81
2020/12/17 12:28:50;;;;;;;23.13;15.98;;;7.60;99.90;;;;;;5066068;28;20222;-80
2020/12/17 12:31:17;;;;;;;17.75;13.15;;;7.60;99.90;;;;;;5062357;28;20571;-81
2020/12/17 12:33:43;;;;;;;23.52;15.25;;;7.60;99.90;;;;;;5072577;22;20214;-80
2020/12/17 12:36:12;;;;;;;20.88;12.85;;;7.60;99.90;;;;;;5058260;28;20215;-80
2020/12/17 12:38:38;;;;;;;21.02;13.27;;;7.70;99.90;;;;;;5058055;28;20207;-80
2020/12/17 12:41:05;;;;;;;21.05;14.40;;;7.70;99.90;;;;;;5057240;28;20702;-80